Edoardo Bertoni

Chefscout - Como
11 Mär 2027
Donnerstag
Verarbeitung

Persönlichkeit

Anpassungsfähigkeit (2) Ehrgeiz (5) Kontroverse (8) Loyalität (10) Druck (19) Professionalität (2) Fairness (4) Temperament (5)

Profil

Trainerstil Demokratisch
Lizenz Kontinentale A
Entschlossenheit 5
Menschenführung 7
Motivation 9
Disziplin 4
Arbeitszufriedenheit
50%
Ermüdung
0%
Rolle Chefscout
Gehalt 48.5K p/W
Vertrag 14.03.2028

Leistung

Verhalten Normal
Trainingseffektivität
22%
Spielerentwicklung
60%
Verletzungsprävention
30%
Taktische Umsetzung
60%

Letzte Ereignisse

Nahm an einer Scouting-Besprechung teil jetzt
Empfahl ein Transferziel jetzt
Nahm an einer Scouting-Besprechung teil 7T her
Empfahl ein Transferziel 7T her
Nahm an einer Scouting-Besprechung teil 7T her
Nahm an einer Scouting-Besprechung teil 7T her
Nahm an einer Scouting-Besprechung teil 14T her
Nahm an einer Scouting-Besprechung teil 14T her

Aktuell beobachtet

113
Spieler Verein Status Fähigkeit Vertrauen Beobachtet Zuletzt beobachtet Letzte Stimme
Giacomo Raspadori Atalanta Abgelehnt 150 / 136 40% 8 18.01.2027 Ablehnen
Devyne Rensch AS Roma Aktiv 139 / 136 40% 2 18.01.2027 -
Rubens Dinamo Moscow Aktiv 119 / 134 40% 1 18.01.2027 -
Wandile Duba Maritzburg United Verhandlung 113 / 113 40% 1 02.01.2027 -
Destiny Efosa Egharevba Picerno Aktiv 111 / 106 40% 1 02.01.2027 -
Yaroslav Gladyshev Dinamo Moscow Aktiv 125 / 111 40% 1 02.01.2027 -
Mao Hosoya Sagan Tosu Verhandlung 134 / 135 67% 1 01.01.2027 Befürworten
Raoul Bellanova Atalanta Aktiv 143 / 146 40% 4 31.12.2026 -
Chiquinho Alverca Aktiv 133 / 126 40% 1 31.12.2026 -
Andrea Colpani Monza Aktiv 133 / 139 40% 2 28.12.2026 -
Antonino Gallo Lecce Verloren 142 / 123 40% 3 28.12.2026 Beobachten
Alessandro Bianco Modena Aktiv 135 / 140 40% 1 28.12.2026 -
Zakaria Aboukhlal Torino Aktiv 143 / 143 40% 2 27.12.2026 -
Pontus Almqvist Parma Aktiv 134 / 117 40% 1 27.12.2026 -
Nicolò Cambiaghi Bologna Aktiv 136 / 149 40% 8 25.12.2026 Beobachten
Ruben van Bommel Ferencvaros Aktiv 125 / 139 40% 2 25.12.2026 -
Thierry Rendall Correia Venezia Verloren 144 / 144 40% 2 24.12.2026 -
Lameck Banda Lecce Aktiv 124 / 139 40% 1 24.12.2026 -
Christian Krasnodar Verloren 140 / 126 40% 2 22.12.2026 -
Reda Khadra Qarabag Aktiv 123 / 132 40% 2 22.12.2026 -
Romano Schmid Frosinone Verloren 144 / 152 40% 3 21.12.2026 -
Nicolò Zaniolo Udinese Aktiv 135 / 149 40% 1 21.12.2026 -
Petar Stanić Ludogorets Aktiv 136 / 118 40% 2 20.12.2026 -
Assane Diao Lazio Aktiv 142 / 154 40% 3 18.12.2026 -
Ardon Jashari AC Milan Aktiv 129 / 138 40% 1 18.12.2026 -
Tommaso Barbieri Cremonese Aktiv 125 / 143 40% 1 18.12.2026 -
Endrick Real Madrid Aktiv 141 / 149 40% 1 16.12.2026 -
Mehdi Dorval Catanzaro Aktiv 130 / 122 40% 1 15.12.2026 -
Domagoj Bradarić Hellas Verona Aktiv 130 / 135 40% 2 11.12.2026 -
Riqui Puig LA Galaxy Aktiv 139 / 131 40% 1 10.12.2026 -
Santiago Pierotti Lecce Aktiv 130 / 124 40% 1 10.12.2026 -
Aleksa Terzić Frosinone Aktiv 133 / 128 40% 1 10.12.2026 -
Matko Miljevic Racing Club Aktiv 136 / 145 40% 2 09.12.2026 -
Filippo Ranocchia Palermo Aktiv 130 / 129 40% 2 09.12.2026 -
Nadir Zortea Bologna Aktiv 132 / 133 40% 2 09.12.2026 -
Kamaldeen Sulemana Atalanta Aktiv 142 / 131 40% 2 07.12.2026 Mehr Infos nötig
Samuele Angori Pisa Aktiv 134 / 130 40% 1 07.12.2026 -
Alan Lescano Argentinos Juniors Aktiv 134 / 147 40% 6 06.12.2026 -
Marcelo Allende Mamelodi Sundowns Aktiv 119 / 125 40% 2 03.12.2026 -
Sergio Arribas Almería Aktiv 139 / 143 40% 3 01.12.2026 -
Adrián Bernabé Parma Aktiv 144 / 134 40% 3 01.12.2026 -
Alessio Zerbin Frosinone Aktiv 127 / 118 40% 1 01.12.2026 -
Tiago Palacios Estudiantes Aktiv 133 / 132 40% 3 29.11.2026 -
Samuel Lucero Defensa y Justicia Aktiv 110 / 126 40% 2 18.11.2026 -
Lucas Jetten Cambuur Aktiv 111 / 120 40% 1 18.11.2026 -
Matvey Kislyak CSKA Moscow Aktiv 129 / 156 40% 1 18.11.2026 -
Nikita Stoinov Dinamo Bucharest Aktiv 117 / 129 40% 1 17.11.2026 -
Aleksandar Stanković Inter Aktiv 123 / 136 40% 1 17.11.2026 -
Lewis Ferguson Bologna Aktiv 151 / 143 40% 2 14.11.2026 -
Mattia Felici Cagliari Aktiv 130 / 138 40% 2 14.11.2026 -
Tijjani Noslin Lazio Aktiv 133 / 143 40% 1 14.11.2026 -
Juan Miranda Bologna Aktiv 142 / 150 40% 4 13.11.2026 -
Gustav Isaksen Lazio Aktiv 152 / 140 40% 2 13.11.2026 -
Antony Portland Timbers Aktiv 135 / 124 40% 1 13.11.2026 -
Kristian Thorstvedt Sassuolo Aktiv 136 / 134 40% 1 12.11.2026 -
Morten Frendrup Genoa Aktiv 132 / 134 40% 1 12.11.2026 -
Ole-Didrik Blomberg Bodo/Glimt Aktiv 126 / 118 40% 1 11.11.2026 -
Orkun Kökçü Besiktas Aktiv 152 / 155 40% 2 07.11.2026 -
Armand Laurienté Sassuolo Aktiv 127 / 134 40% 1 07.11.2026 -
Iván Angulo Orlando City Aktiv 121 / 140 40% 1 06.11.2026 -
Alex Luna Instituto Aktiv 120 / 112 40% 1 03.11.2026 -
Ola Brynhildsen Bodo/Glimt Aktiv 122 / 133 40% 1 02.11.2026 -
Mattéo Tramoni Pisa Aktiv 134 / 118 40% 1 02.11.2026 -
Everton Bala Levski Aktiv 118 / 131 40% 1 02.11.2026 -
Franco Ibarra Rosario Central Aktiv 125 / 114 40% 1 30.10.2026 -
Gianluca Busio Venezia Aktiv 132 / 137 40% 2 25.10.2026 -
Luciano Gondou CSKA Moscow Aktiv 136 / 121 40% 1 25.10.2026 -
Carlos Augusto Inter Aktiv 146 / 152 40% 3 24.10.2026 -
Michel Ndary Adopo Cagliari Aktiv 132 / 146 40% 1 23.10.2026 -
Óscar Mingueza Crystal Palace Aktiv 141 / 157 40% 2 22.10.2026 -
Georginio Rutter Brighton Aktiv 144 / 146 40% 2 22.10.2026 -
Carlos Forbs Club Brugge Aktiv 140 / 130 40% 1 22.10.2026 -
Tyler Adams Bournemouth Aktiv 156 / 145 40% 1 21.10.2026 -
Josh Doig Sassuolo Aktiv 143 / 135 40% 1 21.10.2026 -
Charles De Ketelaere Atalanta Aktiv 151 / 144 40% 1 16.10.2026 -
Carlos Vicente Birmingham Aktiv 136 / 137 40% 1 16.10.2026 -
José Paradela Cruz Azul Aktiv 150 / 127 40% 1 15.10.2026 -
Jadon Sancho Manchester United Aktiv 150 / 159 40% 1 15.10.2026 -
Ryan Sessegnon Fulham Aktiv 148 / 155 40% 1 14.10.2026 -
Loum Tchaouna Coventry City Aktiv 142 / 139 40% 1 14.10.2026 -
Billy Gilmour Napoli Aktiv 150 / 141 40% 1 11.10.2026 -
Efraín Álvarez Guadalajara Aktiv 127 / 115 40% 1 09.10.2026 -
Caio Vidal Ludogorets Aktiv 115 / 131 40% 1 09.10.2026 -
Elliot Anderson Manchester City Aktiv 147 / 150 40% 1 08.10.2026 -
Ozziel Herrera Tigres Aktiv 128 / 143 40% 1 08.10.2026 -
Sascha Britschgi Padova Aktiv 111 / 138 40% 2 07.10.2026 -
Mandla Erasmus SuperSport United Aktiv 119 / 111 40% 1 07.10.2026 -
Djed Spence Inter Aktiv 134 / 138 40% 1 12.09.2026 -
Enrico Delprato Parma Aktiv 135 / 142 40% 1 10.09.2026 -
Jens Petter Hauge Bodo/Glimt Aktiv 142 / 143 40% 1 09.09.2026 -
Diogo Dalot Manchester United Aktiv 152 / 139 40% 2 08.09.2026 -
Nazareno Roselli Defensa y Justicia Aktiv 123 / 112 40% 1 07.09.2026 -
Justin-Noël Kalumba Mallorca Aktiv 105 / 107 40% 1 07.09.2026 -
Mikkel Damsgaard Brentford Aktiv 147 / 139 40% 1 07.09.2026 -
Kevin Vazquez Cruz Azul Aktiv 143 / 130 40% 2 05.09.2026 -
Stefano Di Mario Virtus Entella Aktiv 108 / 120 40% 1 05.09.2026 -
Mateo Mendoza Godoy Cruz Aktiv 107 / 133 40% 1 05.09.2026 -
Bradley Ibrahim Plymouth Argyle Aktiv 110 / 117 40% 1 04.09.2026 -
Jack Hinshelwood Brighton Aktiv 146 / 134 40% 1 02.09.2026 -
Dávid Strelec Middlesbrough Aktiv 135 / 139 40% 1 02.09.2026 -
Telasco Segovia Inter Miami CF Aktiv 116 / 114 40% 1 01.09.2026 -
Yehor Yarmoliuk Brentford Aktiv 147 / 156 40% 1 01.09.2026 -
Simón García Atletico Nacional Aktiv 128 / 135 40% 1 27.08.2026 -
Eivind Helland Bologna Aktiv 123 / 126 40% 1 27.08.2026 -
Ernie Weaver AFC Wimbledon Aktiv 99 / 121 40% 1 26.08.2026 -
Victor Froholdt Porto Aktiv 157 / 161 40% 1 26.08.2026 -
Nicolas Previtali Giana Erminio Aktiv 98 / 111 40% 1 25.08.2026 -
Warren Zaïre-Emery Paris Saint-Germain Aktiv 147 / 171 40% 1 25.08.2026 -
Nahuel Leivas Montevideo City Torque Aktiv 115 / 98 40% 1 24.08.2026 -
Josh Acheampong Chelsea Aktiv 129 / 137 40% 1 24.08.2026 -
Rico Lewis Manchester City Aktiv 148 / 163 40% 1 24.08.2026 -
Nathan Lowe Stoke City Aktiv 115 / 115 40% 1 02.08.2026 -
Darren Yapi Colorado Rapids Aktiv 107 / 120 40% 1 01.08.2026 -